Time;durP1;ratioP1;P1;durP2;ratioP2;P2;SDS_P1;SDS_P2;PMS_P1;PMS_P2;Temp;Humidity;BMP_temperature;BMP_pressure;BME280_temperature;BME280_humidity;BME280_pressure;Samples;Min_cycle;Max_cycle;Signal;HPM_P1;HPM_P2
2021/08/22 00:00:07;;;;;;;3.10;2.30;;;19.80;99.90;;;;;;5031045;28;20709;-72
2021/08/22 00:02:34;;;;;;;2.80;2.60;;;19.80;99.90;;;;;;5030846;28;20619;-72
2021/08/22 00:05:01;;;;;;;3.20;2.47;;;19.70;99.90;;;;;;5031397;28;20209;-72
2021/08/22 00:07:28;;;;;;;2.63;2.43;;;19.60;99.90;;;;;;5031375;28;20664;-72
2021/08/22 00:09:55;;;;;;;2.30;2.20;;;19.60;99.90;;;;;;5031134;28;20205;-72
2021/08/22 00:12:23;;;;;;;2.70;2.50;;;19.50;99.90;;;;;;5031249;28;20232;-70
2021/08/22 00:14:49;;;;;;;3.33;2.33;;;19.60;99.90;;;;;;5030935;28;20205;-71
2021/08/22 00:17:16;;;;;;;2.87;2.37;;;19.60;99.90;;;;;;5030200;28;20251;-70
2021/08/22 00:19:43;;;;;;;2.77;2.57;;;19.60;99.90;;;;;;5031741;28;20214;-70
2021/08/22 00:22:09;;;;;;;2.00;1.87;;;19.60;99.90;;;;;;5031533;28;20308;-70
2021/08/22 00:24:36;;;;;;;2.43;2.33;;;19.50;99.90;;;;;;5031276;28;20271;-71
2021/08/22 00:27:03;;;;;;;2.57;2.23;;;19.60;99.90;;;;;;5031345;28;20286;-71
2021/08/22 00:29:31;;;;;;;2.60;2.40;;;19.50;99.90;;;;;;5031186;28;20200;-71
2021/08/22 00:31:58;;;;;;;2.30;2.20;;;19.40;99.90;;;;;;5031208;28;20279;-73
2021/08/22 00:34:24;;;;;;;2.93;2.10;;;19.30;99.90;;;;;;5031208;28;20282;-72
2021/08/22 00:36:54;;;;;;;2.50;2.30;;;19.20;99.90;;;;;;5031223;28;20220;-72
2021/08/22 00:39:21;;;;;;;2.97;2.70;;;19.20;99.90;;;;;;5031124;28;20773;-71
2021/08/22 00:41:47;;;;;;;2.77;2.40;;;19.20;99.90;;;;;;5030812;28;20229;-70
2021/08/22 00:44:14;;;;;;;3.73;2.20;;;19.30;99.90;;;;;;5031055;28;20240;-70
2021/08/22 00:46:42;;;;;;;2.70;2.50;;;19.30;99.90;;;;;;5030696;28;20304;-70
2021/08/22 00:49:09;;;;;;;2.50;2.30;;;19.30;99.90;;;;;;5030970;28;20262;-70
2021/08/22 00:51:37;;;;;;;2.43;2.33;;;19.40;99.90;;;;;;5030333;28;20259;-70
2021/08/22 00:54:03;;;;;;;2.63;2.43;;;19.40;99.90;;;;;;5031031;28;20263;-70
2021/08/22 00:56:31;;;;;;;3.10;2.13;;;19.30;99.90;;;;;;5030726;28;20209;-70
2021/08/22 00:59:01;;;;;;;3.50;2.60;;;19.40;99.90;;;;;;5029683;28;20287;-70
2021/08/22 01:01:27;;;;;;;2.70;2.20;;;19.40;99.90;;;;;;5030196;28;20671;-70
2021/08/22 01:04:00;;;;;;;3.23;2.50;;;19.40;99.90;;;;;;5030873;28;20220;-70
2021/08/22 01:06:33;;;;;;;2.83;2.40;;;19.50;99.90;;;;;;5030762;28;20275;-70
2021/08/22 01:09:03;;;;;;;2.17;2.07;;;19.40;99.90;;;;;;5030488;28;20200;-70
2021/08/22 01:11:35;;;;;;;2.73;2.30;;;19.40;99.90;;;;;;5030645;28;20236;-72
2021/08/22 01:14:05;;;;;;;2.67;2.47;;;19.40;99.90;;;;;;5030217;28;20232;-70
2021/08/22 01:16:36;;;;;;;2.20;2.10;;;19.40;99.90;;;;;;5041348;28;20228;-70
2021/08/22 01:19:13;;;;;;;2.90;2.50;;;19.40;99.90;;;;;;5050104;28;20658;-70
2021/08/22 01:21:41;;;;;;;2.80;2.60;;;19.40;99.90;;;;;;5050309;28;20224;-70
2021/08/22 01:24:08;;;;;;;2.40;2.20;;;19.40;99.90;;;;;;5050102;28;20216;-70
2021/08/22 01:26:38;;;;;;;2.50;2.30;;;19.40;99.90;;;;;;5049815;28;20635;-71
2021/08/22 01:29:05;;;;;;;2.27;2.17;;;19.40;99.90;;;;;;5050188;28;20208;-72
2021/08/22 01:31:38;;;;;;;2.20;2.10;;;19.40;99.90;;;;;;5049623;28;20714;-72
2021/08/22 01:34:06;;;;;;;2.00;1.90;;;19.40;99.90;;;;;;5049903;28;20246;-72
2021/08/22 01:36:34;;;;;;;2.47;2.37;;;19.40;99.90;;;;;;5049877;28;20611;-72
2021/08/22 01:39:02;;;;;;;2.60;2.40;;;19.30;99.90;;;;;;5049570;28;20278;-71
2021/08/22 01:41:29;;;;;;;2.90;2.50;;;19.30;99.90;;;;;;5049767;28;20381;-71
2021/08/22 01:43:57;;;;;;;4.63;2.30;;;19.30;99.90;;;;;;5049800;28;20208;-71
2021/08/22 01:46:28;;;;;;;2.40;2.20;;;19.40;99.90;;;;;;5049753;28;20208;-71
2021/08/22 01:48:55;;;;;;;2.67;2.47;;;19.40;99.90;;;;;;5049876;28;20238;-71
2021/08/22 01:51:26;;;;;;;2.83;2.63;;;19.30;99.90;;;;;;5049629;28;20227;-71
2021/08/22 01:53:52;;;;;;;2.63;2.43;;;19.20;99.90;;;;;;5049494;28;20235;-71
2021/08/22 01:56:19;;;;;;;2.10;2.00;;;19.20;99.90;;;;;;5049696;28;20613;-71
2021/08/22 01:58:46;;;;;;;2.00;1.90;;;19.20;99.90;;;;;;5049141;28;20317;-71
2021/08/22 02:01:14;;;;;;;3.13;2.83;;;19.10;99.90;;;;;;5049349;28;21103;-71
2021/08/22 02:03:46;;;;;;;3.40;2.00;;;18.90;99.90;;;;;;5049353;28;20212;-71
2021/08/22 02:06:19;;;;;;;2.97;2.20;;;18.90;99.90;;;;;;5049220;28;20759;-71
2021/08/22 02:08:52;;;;;;;2.20;2.10;;;18.90;99.90;;;;;;5049362;28;20270;-71
2021/08/22 02:11:22;;;;;;;2.27;2.13;;;18.90;99.90;;;;;;5049213;28;20262;-71
2021/08/22 02:13:50;;;;;;;2.53;2.20;;;19.00;99.90;;;;;;5049328;28;20282;-71
2021/08/22 02:16:21;;;;;;;2.30;2.20;;;18.90;99.90;;;;;;5049066;28;20640;-71
2021/08/22 02:18:49;;;;;;;2.57;2.33;;;19.00;99.90;;;;;;5049276;28;20223;-71
2021/08/22 02:21:17;;;;;;;2.10;1.90;;;19.00;99.90;;;;;;5049266;28;20204;-71
2021/08/22 02:23:44;;;;;;;2.37;2.27;;;19.00;99.90;;;;;;5049026;28;20273;-69
2021/08/22 02:26:12;;;;;;;2.57;2.37;;;18.90;99.90;;;;;;5048778;28;20659;-71
2021/08/22 02:28:39;;;;;;;2.33;2.13;;;18.90;99.90;;;;;;5048785;28;20208;-71
2021/08/22 02:31:05;;;;;;;2.60;2.47;;;19.00;99.90;;;;;;5048901;28;20621;-71
2021/08/22 02:33:32;;;;;;;2.43;2.23;;;19.10;99.90;;;;;;5048730;28;20250;-72
2021/08/22 02:35:59;;;;;;;2.57;2.23;;;19.00;99.90;;;;;;5048532;28;20262;-72
2021/08/22 02:38:25;;;;;;;2.47;2.30;;;19.00;99.90;;;;;;5048711;28;20655;-72
2021/08/22 02:40:52;;;;;;;2.40;2.10;;;19.00;99.90;;;;;;5048411;28;20256;-72
2021/08/22 02:43:20;;;;;;;2.33;2.13;;;18.90;99.90;;;;;;5048856;28;20617;-71
2021/08/22 02:45:46;;;;;;;2.23;2.13;;;18.90;99.90;;;;;;5048435;28;20244;-71
2021/08/22 02:48:13;;;;;;;2.53;2.33;;;19.00;99.90;;;;;;5048637;28;20204;-71
2021/08/22 02:50:41;;;;;;;2.20;2.10;;;19.00;99.90;;;;;;5048360;28;20214;-71
2021/08/22 02:53:09;;;;;;;4.90;2.40;;;18.90;99.90;;;;;;5048550;28;20227;-71
2021/08/22 02:55:38;;;;;;;2.30;2.10;;;18.90;99.90;;;;;;5048434;28;20208;-71
2021/08/22 02:58:04;;;;;;;2.60;2.40;;;18.90;99.90;;;;;;5048471;28;20255;-71
2021/08/22 03:00:32;;;;;;;2.00;1.90;;;18.90;99.90;;;;;;5048223;28;20313;-71
2021/08/22 03:02:59;;;;;;;2.17;2.07;;;18.90;99.90;;;;;;5048642;28;20208;-71
2021/08/22 03:05:25;;;;;;;2.50;2.30;;;18.90;99.90;;;;;;5048397;28;20208;-71
2021/08/22 03:07:52;;;;;;;2.30;2.20;;;18.90;99.90;;;;;;5047943;28;20232;-71
2021/08/22 03:10:18;;;;;;;3.43;2.63;;;19.00;99.90;;;;;;5048331;28;20207;-71
2021/08/22 03:12:45;;;;;;;2.30;2.10;;;18.80;99.90;;;;;;5048226;28;20325;-71
2021/08/22 03:15:12;;;;;;;2.33;2.13;;;18.90;99.90;;;;;;5048376;28;20204;-71
2021/08/22 03:17:40;;;;;;;3.23;2.30;;;18.80;99.90;;;;;;5048359;28;20277;-71
2021/08/22 03:20:08;;;;;;;2.17;2.07;;;18.90;99.90;;;;;;5048619;28;20270;-70
2021/08/22 03:22:35;;;;;;;2.30;2.20;;;18.90;99.90;;;;;;5051241;28;20204;-70
2021/08/22 03:25:02;;;;;;;2.50;2.40;;;18.90;99.90;;;;;;5055129;28;20269;-71
2021/08/22 03:27:29;;;;;;;2.03;1.93;;;18.90;99.90;;;;;;5054674;28;20258;-71
2021/08/22 03:29:55;;;;;;;2.00;1.90;;;18.80;99.90;;;;;;5054707;28;20265;-70
2021/08/22 03:32:22;;;;;;;2.10;2.00;;;18.80;99.90;;;;;;5054741;28;20273;-70
2021/08/22 03:34:50;;;;;;;2.30;2.20;;;18.80;99.90;;;;;;5054640;28;20243;-71
2021/08/22 03:37:17;;;;;;;2.10;2.00;;;18.80;99.90;;;;;;5054948;28;20255;-70
2021/08/22 03:39:43;;;;;;;2.37;2.23;;;18.70;99.90;;;;;;5054714;28;20652;-71
2021/08/22 03:42:10;;;;;;;2.27;2.07;;;18.80;99.90;;;;;;5054778;28;20257;-70
2021/08/22 03:44:36;;;;;;;2.57;2.37;;;18.70;99.90;;;;;;5054557;28;20243;-70
2021/08/22 03:47:03;;;;;;;2.30;2.00;;;18.60;99.90;;;;;;5054369;28;20229;-70
2021/08/22 03:49:30;;;;;;;2.67;2.43;;;18.60;99.90;;;;;;5054826;28;20257;-70
2021/08/22 03:51:58;;;;;;;2.80;2.20;;;18.60;99.90;;;;;;5054336;28;20262;-71
2021/08/22 03:54:25;;;;;;;2.70;2.50;;;18.50;99.90;;;;;;5054650;28;20200;-70
2021/08/22 03:56:51;;;;;;;2.63;2.43;;;18.50;99.90;;;;;;5054555;28;20280;-71
2021/08/22 03:59:18;;;;;;;4.00;2.57;;;18.50;99.90;;;;;;5054257;28;20243;-70
2021/08/22 04:01:45;;;;;;;2.20;2.10;;;18.60;99.90;;;;;;5054735;28;20215;-71
2021/08/22 04:04:11;;;;;;;2.20;2.10;;;18.60;99.90;;;;;;5054620;28;20612;-70
2021/08/22 04:06:40;;;;;;;2.40;2.20;;;18.60;99.90;;;;;;5054507;28;20210;-71
2021/08/22 04:09:08;;;;;;;2.30;2.10;;;18.60;99.90;;;;;;5054562;28;20253;-71
2021/08/22 04:11:35;;;;;;;5.53;2.23;;;18.60;99.90;;;;;;5054524;28;20679;-71
2021/08/22 04:14:02;;;;;;;2.33;2.23;;;18.60;99.90;;;;;;5053931;28;20677;-72
2021/08/22 04:16:29;;;;;;;2.30;2.20;;;18.70;99.90;;;;;;5054486;28;20234;-72
2021/08/22 04:18:56;;;;;;;5.53;2.30;;;18.60;99.90;;;;;;5054242;28;20254;-71
2021/08/22 04:21:22;;;;;;;2.60;2.40;;;18.60;99.90;;;;;;5054419;28;20204;-70
2021/08/22 04:23:49;;;;;;;3.20;1.90;;;18.60;99.90;;;;;;5054208;28;20262;-72
2021/08/22 04:26:17;;;;;;;3.77;2.57;;;18.60;99.90;;;;;;5054028;28;20239;-71
2021/08/22 04:28:43;;;;;;;2.20;2.10;;;18.60;99.90;;;;;;5054176;28;20204;-71
2021/08/22 04:31:13;;;;;;;3.67;2.40;;;18.60;99.90;;;;;;5054040;28;20654;-71
2021/08/22 04:33:40;;;;;;;2.20;2.10;;;18.60;99.90;;;;;;5051987;28;20285;-71
2021/08/22 04:36:06;;;;;;;2.93;2.10;;;18.60;99.90;;;;;;5050775;28;20734;-71
2021/08/22 04:38:35;;;;;;;3.50;2.27;;;18.60;99.90;;;;;;5050735;28;20724;-71
2021/08/22 04:41:02;;;;;;;2.30;2.20;;;18.70;99.90;;;;;;5050737;28;20228;-72
2021/08/22 04:43:30;;;;;;;2.33;2.20;;;18.60;99.90;;;;;;5050922;28;20208;-72
2021/08/22 04:45:56;;;;;;;3.47;2.10;;;18.60;99.90;;;;;;5050792;28;20201;-72
2021/08/22 04:48:23;;;;;;;2.20;2.10;;;18.50;99.90;;;;;;5050854;28;20784;-71
2021/08/22 04:50:50;;;;;;;3.23;2.17;;;18.50;99.90;;;;;;5050867;28;20204;-71
2021/08/22 04:53:16;;;;;;;2.30;2.10;;;18.50;99.90;;;;;;5050871;28;20232;-72
2021/08/22 04:55:43;;;;;;;2.73;2.10;;;18.50;99.90;;;;;;5050619;28;20277;-72
2021/08/22 04:58:12;;;;;;;4.97;2.60;;;18.60;99.90;;;;;;5050853;28;20325;-72
2021/08/22 05:00:40;;;;;;;2.50;2.40;;;18.60;99.90;;;;;;5050253;28;20267;-71
2021/08/22 05:03:07;;;;;;;2.20;2.00;;;18.60;99.90;;;;;;5050808;28;20270;-71
2021/08/22 05:05:34;;;;;;;2.07;1.90;;;18.60;99.90;;;;;;5050484;28;20215;-71
2021/08/22 05:08:00;;;;;;;2.47;2.27;;;18.60;99.90;;;;;;5050035;28;21041;-72
2021/08/22 05:10:30;;;;;;;1.87;1.77;;;18.70;99.90;;;;;;5050524;28;20282;-71
2021/08/22 05:12:56;;;;;;;2.00;1.87;;;18.70;99.90;;;;;;5050110;28;20679;-70
2021/08/22 05:15:23;;;;;;;3.53;2.10;;;18.70;99.90;;;;;;5050029;28;20259;-70
2021/08/22 05:17:51;;;;;;;2.13;2.00;;;18.70;99.90;;;;;;5050324;28;20240;-74
2021/08/22 05:20:19;;;;;;;2.40;2.20;;;18.80;99.90;;;;;;5050574;28;20261;-74
2021/08/22 05:22:46;;;;;;;2.23;2.13;;;18.80;99.90;;;;;;5050130;28;20211;-74
2021/08/22 05:25:12;;;;;;;2.00;1.90;;;18.90;99.90;;;;;;5049978;28;20208;-74
2021/08/22 05:27:39;;;;;;;2.53;2.40;;;18.90;99.90;;;;;;5049789;28;20239;-72
2021/08/22 05:30:07;;;;;;;3.10;2.07;;;18.90;99.90;;;;;;5050328;28;20286;-72
2021/08/22 05:32:33;;;;;;;2.60;2.50;;;18.90;99.90;;;;;;5049676;28;20263;-71
2021/08/22 05:35:01;;;;;;;2.37;2.27;;;18.90;99.90;;;;;;5049899;28;20269;-70
2021/08/22 05:37:28;;;;;;;4.83;3.33;;;18.90;99.90;;;;;;5049748;28;20224;-71
2021/08/22 05:39:54;;;;;;;3.30;2.40;;;18.80;99.90;;;;;;5049447;28;20714;-70
2021/08/22 05:42:21;;;;;;;3.37;3.07;;;18.80;99.90;;;;;;5049952;28;20285;-75
2021/08/22 05:44:48;;;;;;;3.73;3.50;;;18.90;99.90;;;;;;5049469;28;20270;-74
2021/08/22 05:47:19;;;;;;;2.83;2.50;;;18.90;99.90;;;;;;5050074;28;20219;-74
2021/08/22 05:49:47;;;;;;;2.57;2.37;;;19.00;99.90;;;;;;5049695;28;20227;-74
2021/08/22 05:52:15;;;;;;;2.93;2.30;;;19.00;99.90;;;;;;5050086;28;20209;-73
2021/08/22 05:54:42;;;;;;;2.00;1.90;;;19.00;99.90;;;;;;5049534;28;20289;-74
2021/08/22 05:57:09;;;;;;;2.20;2.10;;;19.10;99.90;;;;;;5049822;28;20251;-74
2021/08/22 05:59:35;;;;;;;2.20;2.10;;;19.10;99.90;;;;;;5049550;28;20313;-74
2021/08/22 06:02:02;;;;;;;3.53;1.97;;;19.10;99.90;;;;;;5049432;28;20269;-73
2021/08/22 06:04:28;;;;;;;1.90;1.80;;;19.10;99.90;;;;;;5049436;28;20257;-73
2021/08/22 06:06:55;;;;;;;2.10;2.00;;;19.20;99.90;;;;;;5049122;28;20212;-72
2021/08/22 06:09:29;;;;;;;2.80;2.07;;;19.20;99.90;;;;;;5048989;28;20755;-72
2021/08/22 06:11:55;;;;;;;1.90;1.80;;;19.30;99.90;;;;;;5049123;28;20188;-72
2021/08/22 06:14:22;;;;;;;1.80;1.70;;;19.30;99.90;;;;;;5049359;28;20239;-72
2021/08/22 06:16:48;;;;;;;2.70;2.10;;;19.40;99.90;;;;;;5049110;28;20227;-71
2021/08/22 06:19:15;;;;;;;2.27;2.07;;;19.40;99.90;;;;;;5049069;28;20239;-72
2021/08/22 06:21:41;;;;;;;2.07;1.97;;;19.40;99.90;;;;;;5049034;28;20446;-72
2021/08/22 06:24:08;;;;;;;1.90;1.80;;;19.30;99.90;;;;;;5048852;28;20230;-73
2021/08/22 06:26:36;;;;;;;1.90;1.80;;;19.40;99.90;;;;;;5049008;28;20200;-73
2021/08/22 06:29:03;;;;;;;2.23;2.03;;;19.30;99.90;;;;;;5048465;28;20841;-74
2021/08/22 06:31:30;;;;;;;1.93;1.70;;;19.40;99.90;;;;;;5048866;28;20240;-73
2021/08/22 06:33:57;;;;;;;2.20;2.10;;;19.40;99.90;;;;;;5048382;28;20261;-73
2021/08/22 06:36:23;;;;;;;1.90;1.80;;;19.40;99.90;;;;;;5048822;28;20208;-73
2021/08/22 06:38:50;;;;;;;1.90;1.80;;;19.40;99.90;;;;;;5048504;28;20702;-73
2021/08/22 06:41:16;;;;;;;2.23;2.00;;;19.40;99.90;;;;;;5048779;28;20325;-73
2021/08/22 06:43:44;;;;;;;2.37;1.80;;;19.40;99.90;;;;;;5048708;28;20208;-73
2021/08/22 06:46:11;;;;;;;2.40;2.30;;;19.50;99.90;;;;;;5048724;28;20243;-71
2021/08/22 06:48:37;;;;;;;2.00;1.90;;;19.60;99.90;;;;;;5048221;28;20676;-71
2021/08/22 06:51:04;;;;;;;2.17;1.97;;;19.70;99.90;;;;;;5048534;28;20212;-71
2021/08/22 06:53:31;;;;;;;2.13;2.00;;;19.70;99.90;;;;;;5048428;28;20271;-71
2021/08/22 06:55:57;;;;;;;2.17;2.07;;;19.90;99.90;;;;;;5048341;28;20568;-71
2021/08/22 06:58:24;;;;;;;2.03;1.93;;;20.00;99.90;;;;;;5047497;28;20261;-70
2021/08/22 07:00:52;;;;;;;2.40;2.20;;;20.00;99.90;;;;;;5048273;28;20244;-71
2021/08/22 07:03:18;;;;;;;3.60;2.00;;;20.10;99.90;;;;;;5048174;28;20726;-71
2021/08/22 07:05:45;;;;;;;2.27;2.07;;;20.20;99.90;;;;;;5048352;28;20208;-70
2021/08/22 07:08:11;;;;;;;1.87;1.70;;;20.30;99.90;;;;;;5048538;28;20236;-70
2021/08/22 07:10:38;;;;;;;2.00;1.90;;;20.30;99.90;;;;;;5048358;28;20214;-70
2021/08/22 07:13:05;;;;;;;2.50;2.30;;;20.30;99.90;;;;;;5047749;28;21185;-72
2021/08/22 07:15:31;;;;;;;3.70;2.07;;;20.30;99.90;;;;;;5048079;28;20235;-73
2021/08/22 07:17:59;;;;;;;3.43;1.93;;;20.30;99.90;;;;;;5048461;28;20208;-73
2021/08/22 07:20:26;;;;;;;2.60;1.70;;;20.30;99.90;;;;;;5048149;28;20236;-72
2021/08/22 07:22:53;;;;;;;2.73;2.30;;;20.40;99.90;;;;;;5048203;28;20227;-72
2021/08/22 07:25:21;;;;;;;2.30;2.20;;;20.40;99.90;;;;;;5048178;28;20246;-71
2021/08/22 07:27:48;;;;;;;2.50;2.30;;;20.50;99.90;;;;;;5047838;28;20534;-71
2021/08/22 07:30:15;;;;;;;2.10;1.90;;;20.60;99.90;;;;;;5047949;28;20236;-73
2021/08/22 07:32:41;;;;;;;2.80;2.07;;;20.60;99.90;;;;;;5048095;28;20261;-72
2021/08/22 07:35:10;;;;;;;2.00;1.90;;;20.60;99.90;;;;;;5047843;28;20324;-72
2021/08/22 07:37:36;;;;;;;2.17;1.97;;;20.70;99.90;;;;;;5037510;28;20224;-70
2021/08/22 07:40:04;;;;;;;2.53;2.33;;;20.70;99.90;;;;;;5037914;28;20707;-70
2021/08/22 07:42:31;;;;;;;2.40;2.20;;;20.70;99.90;;;;;;5036517;28;20810;-70
2021/08/22 07:44:57;;;;;;;3.30;2.10;;;20.80;99.90;;;;;;5037560;28;20253;-70
2021/08/22 07:47:24;;;;;;;2.43;2.30;;;20.80;99.90;;;;;;5035991;28;20197;-71
2021/08/22 07:49:51;;;;;;;2.10;2.00;;;20.70;99.90;;;;;;5038189;28;20232;-71
2021/08/22 07:52:22;;;;;;;8.27;2.40;;;20.80;99.90;;;;;;5034517;28;20228;-71
2021/08/22 07:54:49;;;;;;;3.10;2.10;;;20.80;99.90;;;;;;5038451;28;20213;-72
2021/08/22 07:57:16;;;;;;;2.40;2.20;;;20.90;99.90;;;;;;5030473;28;20197;-72
2021/08/22 07:59:43;;;;;;;2.70;2.40;;;20.90;99.90;;;;;;5032733;28;20224;-72
2021/08/22 08:02:10;;;;;;;3.87;2.43;;;21.00;99.90;;;;;;5038194;28;20667;-72
2021/08/22 08:04:36;;;;;;;3.10;2.20;;;21.00;99.90;;;;;;5035918;28;20233;-72
2021/08/22 08:07:03;;;;;;;2.43;2.23;;;21.10;99.90;;;;;;5037877;28;20200;-72
2021/08/22 08:09:31;;;;;;;2.40;2.30;;;21.10;99.90;;;;;;5039066;28;20282;-70
2021/08/22 08:11:58;;;;;;;2.40;2.20;;;21.10;99.90;;;;;;5041118;28;20297;-72
2021/08/22 08:14:25;;;;;;;5.00;2.60;;;21.10;99.90;;;;;;5041525;28;20239;-72
2021/08/22 08:16:52;;;;;;;3.33;2.27;;;21.10;99.90;;;;;;5031167;28;20209;-72
2021/08/22 08:19:18;;;;;;;2.70;2.10;;;21.20;99.90;;;;;;5031308;28;20201;-72
2021/08/22 08:21:45;;;;;;;2.80;2.33;;;21.20;99.90;;;;;;5030681;28;20205;-72
2021/08/22 08:24:11;;;;;;;2.30;2.20;;;21.30;99.90;;;;;;5030230;28;20232;-72
2021/08/22 08:26:39;;;;;;;2.50;2.27;;;21.40;99.90;;;;;;5029802;28;20674;-71
2021/08/22 08:29:07;;;;;;;2.50;2.30;;;21.40;99.90;;;;;;5029613;28;20620;-71
2021/08/22 08:31:35;;;;;;;7.53;2.90;;;21.50;99.90;;;;;;5030300;28;20229;-72
2021/08/22 08:34:02;;;;;;;2.60;2.40;;;21.60;99.90;;;;;;5035400;28;20220;-71
2021/08/22 08:36:28;;;;;;;3.30;2.37;;;21.60;99.90;;;;;;5038458;28;20205;-72
2021/08/22 08:38:55;;;;;;;3.00;2.70;;;21.50;99.90;;;;;;5035896;28;20267;-72
2021/08/22 08:41:21;;;;;;;2.53;2.30;;;21.50;99.90;;;;;;5040027;28;20263;-71
2021/08/22 08:43:49;;;;;;;3.10;2.60;;;21.60;99.90;;;;;;5039025;28;20231;-72
2021/08/22 08:46:17;;;;;;;3.00;2.80;;;21.60;99.90;;;;;;5040022;28;20223;-71
2021/08/22 08:48:48;;;;;;;3.65;2.50;;;21.60;99.90;;;;;;5040395;28;20193;-72
2021/08/22 08:51:22;;;;;;;3.00;2.60;;;21.70;99.90;;;;;;5030237;28;20201;-71
2021/08/22 08:53:49;;;;;;;3.47;3.25;;;21.80;99.90;;;;;;5029876;28;20220;-71
2021/08/22 08:56:16;;;;;;;3.10;2.88;;;21.80;99.90;;;;;;5026393;28;20287;-71
2021/08/22 08:58:42;;;;;;;3.57;2.90;;;21.70;99.90;;;;;;5026654;28;20331;-74
2021/08/22 09:01:10;;;;;;;3.60;2.95;;;21.90;99.90;;;;;;5027241;28;20282;-74
2021/08/22 09:03:37;;;;;;;3.40;2.65;;;22.00;99.90;;;;;;5026923;28;20244;-75
2021/08/22 09:06:44;;;;;;;3.13;2.92;;;22.00;99.90;;;;;;5026799;28;20239;-71
2021/08/22 09:09:50;;;;;;;2.87;2.67;;;22.00;99.90;;;;;;5026820;28;20232;-72
2021/08/22 09:12:50;;;;;;;3.37;2.87;;;22.00;99.90;;;;;;5008862;28;20236;-72
2021/08/22 09:15:50;;;;;;;3.40;2.88;;;21.90;99.90;;;;;;5026424;28;20726;-72
2021/08/22 09:18:57;;;;;;;4.38;3.08;;;21.90;99.90;;;;;;5026691;28;20657;-71
2021/08/22 09:22:05;;;;;;;3.10;2.90;;;21.80;99.90;;;;;;5025964;28;20810;-72
2021/08/22 09:25:10;;;;;;;3.20;2.87;;;21.80;99.90;;;;;;4978225;28;20675;-71
2021/08/22 09:28:14;;;;;;;4.93;2.95;;;21.80;99.90;;;;;;5026621;28;20208;-71
2021/08/22 09:31:19;;;;;;;3.97;2.87;;;21.80;99.90;;;;;;5037604;28;20253;-71
2021/08/22 09:34:25;;;;;;;3.80;3.50;;;21.80;99.90;;;;;;5036076;28;20285;-71
2021/08/22 09:37:34;;;;;;;3.22;3.03;;;21.90;99.90;;;;;;5046028;28;20289;-71
2021/08/22 09:40:38;;;;;;;5.00;2.93;;;22.00;99.90;;;;;;5045492;28;20740;-71
2021/08/22 09:43:42;;;;;;;3.38;3.08;;;22.10;99.90;;;;;;5045292;28;20219;-71
2021/08/22 09:46:45;;;;;;;3.00;2.72;;;22.10;99.90;;;;;;5045746;28;20562;-71
2021/08/22 09:49:53;;;;;;;4.30;3.10;;;22.10;99.90;;;;;;5045590;28;20243;-71
2021/08/22 09:56:03;;;;;;;4.20;3.00;;;22.10;99.90;;;;;;5143079;27;20588;-71
2021/08/22 09:59:17;;;;;;;4.40;2.83;;;21.90;99.90;;;;;;5143268;27;20735;-71
2021/08/22 10:02:13;;;;;;;3.10;2.90;;;21.80;99.90;;;;;;5143656;27;20239;-71
2021/08/22 10:05:07;;;;;;;6.30;2.92;;;21.70;99.90;;;;;;5143344;27;20570;-71
2021/08/22 10:07:40;;;;;;;3.67;3.05;;;21.70;99.90;;;;;;5143341;27;20193;-71
2021/08/22 10:10:10;;;;;;;4.17;3.20;;;21.70;99.90;;;;;;5142989;27;20707;-71
2021/08/22 10:12:37;;;;;;;3.30;3.00;;;21.60;99.90;;;;;;5142954;27;20622;-74
2021/08/22 10:15:05;;;;;;;3.87;3.50;;;21.70;99.90;;;;;;5133326;27;20264;-74
2021/08/22 10:17:33;;;;;;;4.30;3.30;;;21.70;99.90;;;;;;5122075;27;20748;-74
2021/08/22 10:19:59;;;;;;;3.63;3.33;;;21.70;99.90;;;;;;5121887;28;20259;-72
2021/08/22 10:22:36;;;;;;;5.60;3.20;;;21.70;99.90;;;;;;5122184;28;20238;-72
2021/08/22 10:25:04;;;;;;;3.63;3.03;;;21.80;99.90;;;;;;5121655;28;20213;-71
2021/08/22 10:27:46;;;;;;;4.00;3.00;;;21.80;99.90;;;;;;5121669;28;20651;-71
2021/08/22 10:30:16;;;;;;;3.75;3.38;;;21.80;99.90;;;;;;5121975;28;20656;-72
2021/08/22 10:33:10;;;;;;;3.40;3.10;;;21.80;99.90;;;;;;5121806;27;20205;-72
2021/08/22 10:35:37;;;;;;;3.80;3.50;;;21.90;99.90;;;;;;5073619;28;20733;-72
2021/08/22 10:38:24;;;;;;;4.82;3.35;;;21.80;99.90;;;;;;5122360;28;20226;-72
2021/08/22 10:40:51;;;;;;;4.07;3.25;;;21.90;99.90;;;;;;5121976;28;20634;-72
2021/08/22 10:43:35;;;;;;;4.95;3.20;;;21.80;99.90;;;;;;5119957;28;20650;-72
2021/08/22 10:46:04;;;;;;;3.93;3.43;;;21.80;99.90;;;;;;5121876;28;20290;-72
2021/08/22 10:48:51;;;;;;;4.47;3.63;;;21.80;99.90;;;;;;5121825;27;20231;-72
2021/08/22 10:51:18;;;;;;;5.67;3.83;;;21.80;99.90;;;;;;5122092;28;20429;-71
2021/08/22 10:53:47;;;;;;;3.43;3.23;;;21.80;99.90;;;;;;5121395;28;20302;-72
2021/08/22 10:56:36;;;;;;;4.00;3.60;;;21.80;99.90;;;;;;5121282;28;20197;-72
2021/08/22 10:59:04;;;;;;;3.50;3.30;;;21.70;99.90;;;;;;5121105;28;20231;-71
2021/08/22 11:01:33;;;;;;;18.43;4.70;;;21.60;99.90;;;;;;5121648;27;20259;-71
2021/08/22 11:04:04;;;;;;;8.07;3.80;;;21.60;99.90;;;;;;5121426;28;20262;-72
2021/08/22 11:06:31;;;;;;;3.95;3.63;;;21.60;99.90;;;;;;5108053;28;20752;-71
2021/08/22 11:08:58;;;;;;;3.80;3.60;;;21.50;99.90;;;;;;5107455;28;20279;-72
2021/08/22 11:11:24;;;;;;;4.07;3.78;;;21.50;99.90;;;;;;5108020;28;20259;-71
2021/08/22 11:13:55;;;;;;;3.90;3.60;;;21.50;99.90;;;;;;5106990;28;20330;-72
2021/08/22 11:16:37;;;;;;;3.95;3.65;;;21.40;99.90;;;;;;5105988;28;21032;-71
2021/08/22 11:19:07;;;;;;;4.20;3.70;;;21.40;99.90;;;;;;5105643;28;20633;-72
2021/08/22 11:21:33;;;;;;;4.88;4.35;;;21.30;99.90;;;;;;5106234;28;20233;-71
2021/08/22 11:24:01;;;;;;;5.03;4.57;;;21.20;99.90;;;;;;5106319;28;20202;-71
2021/08/22 11:26:29;;;;;;;4.70;4.30;;;21.20;99.90;;;;;;5106163;28;20275;-71
2021/08/22 11:28:57;;;;;;;5.20;4.73;;;21.10;99.90;;;;;;5110108;27;20212;-72
2021/08/22 11:31:24;;;;;;;4.80;4.30;;;21.00;99.90;;;;;;5117178;27;20213;-72
2021/08/22 11:33:51;;;;;;;6.33;5.77;;;20.90;99.90;;;;;;5107153;27;20291;-72
2021/08/22 11:36:26;;;;;;;4.90;4.50;;;20.70;99.90;;;;;;5107808;28;20226;-72
2021/08/22 11:39:08;;;;;;;4.80;4.30;;;20.50;99.90;;;;;;5107603;28;20229;-72
2021/08/22 11:41:34;;;;;;;5.20;4.80;;;20.50;99.90;;;;;;5107487;28;20209;-72
2021/08/22 11:44:01;;;;;;;4.90;4.50;;;20.60;99.90;;;;;;5107114;28;20770;-74
2021/08/22 11:46:28;;;;;;;4.93;4.63;;;20.70;99.90;;;;;;5107906;28;20213;-74
2021/08/22 11:48:56;;;;;;;5.57;4.30;;;20.70;99.90;;;;;;5107732;28;20271;-74
2021/08/22 11:51:24;;;;;;;7.57;5.43;;;20.80;99.90;;;;;;5107736;28;20209;-71
2021/08/22 11:53:51;;;;;;;10.13;6.40;;;20.80;99.90;;;;;;5107388;28;20314;-71
2021/08/22 11:56:21;;;;;;;5.80;5.27;;;20.80;99.90;;;;;;5107291;28;20633;-71
2021/08/22 11:58:47;;;;;;;6.97;6.37;;;20.80;99.90;;;;;;5107837;28;20194;-71
2021/08/22 12:01:18;;;;;;;9.77;6.00;;;20.80;99.90;;;;;;5107556;28;20387;-71
2021/08/22 12:04:00;;;;;;;11.93;10.00;;;20.70;99.90;;;;;;5107473;28;20613;-72
2021/08/22 12:06:29;;;;;;;26.33;19.70;;;20.50;99.90;;;;;;5107638;28;20192;-71
2021/08/22 12:08:55;;;;;;;14.80;12.87;;;20.40;99.90;;;;;;5107369;28;20210;-71
2021/08/22 12:11:23;;;;;;;6.87;6.27;;;20.20;99.90;;;;;;5105376;27;20677;-71
2021/08/22 12:13:52;;;;;;;6.63;5.93;;;20.10;99.90;;;;;;5103649;28;20284;-71
2021/08/22 12:16:23;;;;;;;8.33;7.53;;;20.00;99.90;;;;;;5103497;28;20715;-71
2021/08/22 12:18:50;;;;;;;12.20;9.43;;;20.00;99.90;;;;;;5103644;28;20199;-71
2021/08/22 12:21:19;;;;;;;10.50;9.20;;;20.00;99.90;;;;;;5109727;28;20198;-71
2021/08/22 12:23:48;;;;;;;13.47;9.43;;;20.00;99.90;;;;;;5107169;28;20230;-71
2021/08/22 12:26:24;;;;;;;10.40;9.30;;;20.00;99.90;;;;;;5108671;28;20198;-71
2021/08/22 12:28:52;;;;;;;10.40;9.00;;;19.90;99.90;;;;;;5099292;28;20214;-71
2021/08/22 12:31:19;;;;;;;9.63;8.63;;;19.90;99.90;;;;;;5090189;28;20211;-71
2021/08/22 12:33:47;;;;;;;8.63;7.80;;;19.90;99.90;;;;;;5085448;28;20252;-72
2021/08/22 12:36:15;;;;;;;8.60;7.80;;;19.70;99.90;;;;;;5085468;28;20230;-72
2021/08/22 12:38:49;;;;;;;9.57;8.37;;;19.70;99.90;;;;;;5085666;28;20231;-73
2021/08/22 12:41:23;;;;;;;9.33;8.53;;;19.60;99.90;;;;;;5085851;28;20226;-71
2021/08/22 12:43:49;;;;;;;8.47;7.67;;;19.50;99.90;;;;;;5085387;28;20211;-72
2021/08/22 12:46:16;;;;;;;8.60;7.80;;;19.40;99.90;;;;;;5085429;28;20718;-71
2021/08/22 12:48:43;;;;;;;7.87;7.27;;;19.50;99.90;;;;;;5085320;28;20685;-71
2021/08/22 12:51:11;;;;;;;8.00;7.40;;;19.50;99.90;;;;;;5085269;28;20211;-71
2021/08/22 12:53:37;;;;;;;8.40;7.60;;;19.50;99.90;;;;;;5084941;28;20239;-71
2021/08/22 12:56:06;;;;;;;11.63;7.57;;;19.60;99.90;;;;;;5084588;28;20712;-71
2021/08/22 12:58:32;;;;;;;9.27;7.87;;;19.70;99.90;;;;;;5084958;28;20737;-71
2021/08/22 13:00:59;;;;;;;8.67;7.87;;;19.80;99.90;;;;;;5085229;28;20659;-71
2021/08/22 13:03:26;;;;;;;11.03;8.57;;;19.90;99.90;;;;;;5084942;28;20653;-71